Historyczne dane pomiarowe

Dodano dane terminowe – wersja testowa.

Dane z okresu 1951-2019

Wersja bazy: 1.34 [2019-03-16, lista zmian], aktualizacja planowana na 2019-04-15

Dane meteo z obszaru Polski uzyskane na podstawie danych udostępnionych przez Instytut Meteorologii i Gospodarki Wodnej – Państwowy Instytut Badawczy.

 

Wybierz Datę:    

       

TemperaturaWilgotnośćWiatrCiśnienieOpadyŚniegCzas trwania zjawisk
 Stacja t tx tn tng RH VA  wxwx mslp ppp RRR   cm mm wxwxwxwxwxwxwx
2018-03-18 -8.1 -4.1-10.1-11.2 91.5- 8.0 3.3---- 1.0------------
2018-03-19 -6.9 -4.1 -8.7-11.6 94.5- 7.7 3.3---- 0.0-- 1---------
2018-03-20 -4.9 -2.2 -6.9 -8.3 87.8- 8.0 2.0---- 0.9------------
2018-03-21 -4.3 1.2 -8.4-11.9 87.5- 5.7 2.0---- 0.0-- 1---------
2018-03-22 -2.9 6.7-10.6-13.4 74.3- 1.0 1.7---- 0.0------------
2018-03-23 -1.2 5.9 -7.0-10.5 73.0- 5.7 2.7---- 0.0------------
2018-03-24 0.5 8.9 -5.2 -8.5 84.0- 3.7 2.0---- 0.0------------
2018-03-25 2.3 8.9 -2.0 -0.6 78.5- 3.7 4.0---- 0.0------------
2018-03-26 0.8 6.8 -3.6 -7.3 83.3- 7.7 1.0---- 1.2------------
2018-03-27 2.1 5.8 0.0 -2.2 85.3- 7.3 1.3---- 1.2------------
2018-03-28 4.0 11.9 -2.7 0.9 74.8- 6.0 2.0---- 1.0------------
2018-03-29 7.4 11.2 5.0 2.8 74.5- 6.7 3.3---- 1.4------------
2018-03-30 7.3 15.2 1.2 -2.4 74.3- 5.7 1.7---- 1.1------------
2018-03-31 8.6 15.8 2.4 -0.4 78.0- 7.0 3.7---- 4.0------------
2018-04-01 5.4 11.4 2.5 1.8 81.8- 7.7 4.0---- 2.2------------
2018-04-02 5.4 11.6 0.8 -0.6 58.3- 3.3 3.0---- 0.0------------
2018-04-03 10.5 20.0 0.0 -4.6 45.0- 2.7 3.7---- 0.0------------
2018-04-04 12.1 19.2 4.9 -0.5 58.0- 4.0 3.3---- 0.0------------
2018-04-05 13.1 18.6 9.4 4.7 54.3- 6.3 3.0---- 0.0------------
2018-04-06 6.7 13.9 4.0 -1.5 67.8- 4.3 3.3---- 0.0------------
2018-04-07 7.3 18.8 -4.6 -7.8 60.3- 1.7 1.3---- 0.0------------
2018-04-08 12.3 22.2 4.0 0.4 67.5- 2.7 3.3---- 0.0------------
2018-04-09 18.5 25.0 14.2 8.4 48.5- 1.3 3.7---- 0.0------------
2018-04-10 13.0 18.9 7.0 2.6 73.0- 4.0 1.7---- 0.0------------
2018-04-11 11.5 21.2 2.8 -1.0 71.8- 5.7 1.0---- 0.0------------
2018-04-12 13.3 26.4 2.4 -1.0 70.0- 1.0 2.3---- 0.0------------
2018-04-13 14.4 20.8 7.6 6.2 64.0- 5.7 2.0---- 0.0------------
2018-04-14 13.7 21.1 8.2 5.8 49.3- 6.0 2.3---- 0.0------------
2018-04-15 13.4 23.9 1.9 0.2 56.5- 6.0 1.3---- 0.4------------
2018-04-16 16.7 25.4 13.7 6.2 69.5- 8.0 2.0---- 2.9------------
140.6 ms

 

Źródłem pochodzenia danych jest Instytut Meteorologii i Gospodarki Wodnej – Państwowy Instytut Badawczy. Dane Instytutu Meteorologii i Gospodarki Wodnej – Państwowego Instytutu Badawczego zostały przetworzone.

Dane źródłowe można odnaleźć na stronie https://dane.imgw.pl